Time;durP1;ratioP1;P1;durP2;ratioP2;P2;SDS_P1;SDS_P2;PMS_P1;PMS_P2;Temp;Humidity;BMP_temperature;BMP_pressure;BME280_temperature;BME280_humidity;BME280_pressure;Samples;Min_cycle;Max_cycle;Signal;HPM_P1;HPM_P2
2022/10/02 09:27:48;;;;;;;2.50;0.90;;;15.80;99.90;;;;;;6215093;23;20497;-70
2022/10/02 09:30:38;;;;;;;5.03;1.83;;;15.80;99.90;;;;;;6215648;23;20176;-70
2022/10/02 09:33:41;;;;;;;2.17;0.70;;;15.90;99.90;;;;;;6215667;23;20200;-70
2022/10/02 09:36:30;;;;;;;3.43;0.93;;;15.90;99.90;;;;;;6215200;23;20190;-70
2022/10/02 09:39:43;;;;;;;2.00;0.80;;;15.80;99.90;;;;;;6215641;23;20517;-70
2022/10/02 09:42:34;;;;;;;2.00;0.80;;;15.70;99.90;;;;;;6215486;23;20239;-69
2022/10/02 09:45:34;;;;;;;2.33;0.70;;;15.70;99.90;;;;;;6215215;23;20176;-69
2022/10/02 09:48:29;;;;;;;0.90;0.70;;;15.80;99.90;;;;;;6215373;23;20208;-69
2022/10/02 09:51:46;;;;;;;2.50;0.90;;;15.70;99.90;;;;;;6215592;23;20255;-69
2022/10/02 09:54:46;;;;;;;3.03;0.93;;;15.60;99.90;;;;;;6065160;23;20180;-69
2022/10/02 09:58:04;;;;;;;5.03;0.90;;;15.60;99.90;;;;;;6064990;23;20180;-71
2022/10/02 10:01:08;;;;;;;1.20;0.90;;;15.70;99.90;;;;;;6215404;23;20242;-69
2022/10/02 10:03:56;;;;;;;2.77;1.20;;;15.60;99.90;;;;;;6209232;23;20691;-69
2022/10/02 10:06:57;;;;;;;1.60;1.10;;;15.70;99.90;;;;;;6215399;23;20200;-69
2022/10/02 10:09:50;;;;;;;3.43;1.10;;;15.70;99.90;;;;;;6188699;23;20182;-70
2022/10/02 10:12:54;;;;;;;2.00;1.23;;;15.70;99.90;;;;;;6215495;23;20196;-70
2022/10/02 10:16:14;;;;;;;3.80;1.33;;;15.60;99.90;;;;;;6215751;23;20190;-69
2022/10/02 10:19:16;;;;;;;6.07;1.00;;;15.50;99.90;;;;;;6215091;23;20191;-71
2022/10/02 10:22:28;;;;;;;3.33;1.10;;;15.60;99.90;;;;;;6215376;23;20235;-70
2022/10/02 10:25:12;;;;;;;2.40;1.30;;;15.70;99.90;;;;;;6065273;23;20219;-70
2022/10/02 10:28:08;;;;;;;2.57;1.10;;;15.80;99.90;;;;;;6215368;23;20218;-70
2022/10/02 10:31:14;;;;;;;2.20;1.10;;;15.90;99.90;;;;;;6215674;23;20176;-70
2022/10/02 10:34:09;;;;;;;2.30;1.37;;;16.00;99.90;;;;;;6141323;23;20176;-70
2022/10/02 10:40:14;;;;;;;1.37;1.00;;;16.00;99.90;;;;;;6215409;23;20717;-70
2022/10/02 10:43:08;;;;;;;1.40;1.00;;;16.00;99.90;;;;;;6215057;23;20204;-70
2022/10/02 10:45:57;;;;;;;4.73;1.10;;;16.00;99.90;;;;;;6215465;23;20180;-70
2022/10/02 10:48:35;;;;;;;2.30;1.27;;;16.10;99.90;;;;;;6216988;23;20208;-70
2022/10/02 10:51:20;;;;;;;1.90;1.00;;;16.10;99.90;;;;;;6216962;23;20187;-69
2022/10/02 10:54:03;;;;;;;3.33;1.80;;;16.20;99.90;;;;;;6216638;23;20243;-70
2022/10/02 10:56:36;;;;;;;2.33;0.90;;;16.30;99.90;;;;;;6216357;23;20529;-70
2022/10/02 10:59:44;;;;;;;1.53;0.90;;;16.40;99.90;;;;;;6216483;23;20651;-70
2022/10/02 11:02:44;;;;;;;3.17;1.00;;;16.40;99.90;;;;;;6212888;23;20196;-70
2022/10/02 11:05:36;;;;;;;1.60;0.83;;;16.30;99.90;;;;;;6217140;23;20711;-70
2022/10/02 11:08:22;;;;;;;1.87;0.60;;;16.50;99.90;;;;;;6217058;23;20204;-69
2022/10/02 11:11:00;;;;;;;2.43;0.80;;;16.50;99.90;;;;;;6216324;23;20227;-69
2022/10/02 11:13:45;;;;;;;2.03;0.93;;;16.70;99.90;;;;;;6216856;23;20263;-70
2022/10/02 11:16:42;;;;;;;2.03;0.70;;;16.70;99.90;;;;;;6217171;23;20177;-70
2022/10/02 11:19:31;;;;;;;2.70;0.90;;;16.80;99.90;;;;;;6217176;23;20200;-70
2022/10/02 11:22:29;;;;;;;1.73;0.60;;;16.90;99.90;;;;;;6216681;23;20200;-71
2022/10/02 11:25:19;;;;;;;3.70;0.90;;;16.90;99.90;;;;;;6216497;23;20184;-69
2022/10/02 11:28:20;;;;;;;2.00;0.90;;;16.90;99.90;;;;;;6210699;23;21076;-69
2022/10/02 11:31:00;;;;;;;1.77;0.80;;;16.80;99.90;;;;;;6216437;23;20516;-68
2022/10/02 11:33:48;;;;;;;2.90;0.97;;;16.70;99.90;;;;;;6216275;23;20620;-68
2022/10/02 11:36:41;;;;;;;2.70;0.67;;;16.80;99.90;;;;;;6216527;23;20191;-69
2022/10/02 11:39:36;;;;;;;1.53;0.87;;;16.80;99.90;;;;;;6216025;23;20288;-68
2022/10/02 11:42:27;;;;;;;2.93;0.83;;;16.90;99.90;;;;;;6216535;23;20200;-69
2022/10/02 11:45:10;;;;;;;2.67;0.70;;;17.10;99.90;;;;;;6216700;23;20177;-69
2022/10/02 11:48:11;;;;;;;3.40;0.77;;;17.10;99.90;;;;;;6216143;23;20211;-68
2022/10/02 11:51:10;;;;;;;2.87;0.60;;;17.10;99.90;;;;;;6216248;23;20696;-68
2022/10/02 11:54:14;;;;;;;1.07;0.63;;;16.90;99.90;;;;;;6216625;23;20215;-69
2022/10/02 11:57:00;;;;;;;2.30;0.77;;;17.00;99.90;;;;;;6140353;23;20235;-71
2022/10/02 11:59:42;;;;;;;3.23;1.00;;;17.10;99.90;;;;;;6216035;23;20486;-69
2022/10/02 12:02:14;;;;;;;2.80;1.10;;;17.00;99.90;;;;;;6215922;23;20621;-69
2022/10/02 12:04:53;;;;;;;3.57;0.73;;;17.10;99.90;;;;;;6215906;23;20176;-70
2022/10/02 12:07:40;;;;;;;3.77;0.90;;;17.10;99.90;;;;;;6216346;23;20207;-69
2022/10/02 12:10:31;;;;;;;6.20;2.25;;;17.10;99.90;;;;;;6216399;23;20208;-72
2022/10/02 12:13:14;;;;;;;2.20;0.97;;;17.20;99.90;;;;;;6215681;23;20196;-68
2022/10/02 12:15:48;;;;;;;1.83;0.97;;;17.20;99.90;;;;;;6216247;23;20188;-69
2022/10/02 12:18:39;;;;;;;1.77;0.90;;;17.20;99.90;;;;;;6216396;23;20187;-69
2022/10/02 12:27:10;;;;;;;2.47;0.93;;;17.30;99.90;;;;;;6215680;23;20207;-68
2022/10/02 12:29:51;;;;;;;1.33;0.80;;;17.30;99.90;;;;;;6215713;23;20176;-71
2022/10/02 12:32:31;;;;;;;2.93;1.00;;;17.40;99.90;;;;;;6212818;23;20208;-71
2022/10/02 12:35:16;;;;;;;2.00;1.03;;;17.20;99.90;;;;;;6215396;23;20260;-70
2022/10/02 12:37:54;;;;;;;1.57;0.93;;;17.20;99.90;;;;;;6215984;23;20184;-70
2022/10/02 12:40:26;;;;;;;2.65;1.33;;;17.40;99.90;;;;;;6215611;23;20190;-71
2022/10/02 12:43:25;;;;;;;3.78;0.88;;;17.60;99.90;;;;;;6215871;23;20275;-71
2022/10/02 12:46:22;;;;;;;1.73;0.87;;;17.50;99.90;;;;;;6155005;23;20204;-69
2022/10/02 12:49:13;;;;;;;1.65;0.95;;;17.60;99.90;;;;;;6215491;23;20212;-69
2022/10/02 12:51:58;;;;;;;1.10;1.00;;;17.70;99.90;;;;;;6215339;23;20592;-71
2022/10/02 12:54:52;;;;;;;3.10;1.35;;;17.90;99.90;;;;;;6215647;23;20508;-68
2022/10/02 12:57:52;;;;;;;3.03;1.10;;;17.70;99.90;;;;;;6215500;23;20180;-69
2022/10/02 13:00:20;;;;;;;4.43;0.90;;;17.70;99.90;;;;;;6215297;23;20183;-69
2022/10/02 13:03:24;;;;;;;2.90;1.00;;;17.90;99.90;;;;;;6214859;23;20197;-69
2022/10/02 13:06:31;;;;;;;1.98;1.25;;;17.90;99.90;;;;;;6215863;23;20613;-72
2022/10/02 13:09:19;;;;;;;2.47;1.50;;;17.80;99.90;;;;;;6215386;23;20214;-70
2022/10/02 13:12:00;;;;;;;5.55;1.25;;;17.70;99.90;;;;;;6214540;23;20676;-69
2022/10/02 13:15:00;;;;;;;2.80;1.10;;;17.60;99.90;;;;;;6215379;23;20562;-69
2022/10/02 13:17:37;;;;;;;1.80;1.10;;;17.50;99.90;;;;;;6212670;23;20628;-70
2022/10/02 13:20:15;;;;;;;3.10;1.48;;;17.40;99.90;;;;;;6215346;23;20259;-70
2022/10/02 13:22:54;;;;;;;3.40;1.30;;;17.60;99.90;;;;;;6215123;23;20292;-72
2022/10/02 13:25:37;;;;;;;2.40;1.15;;;17.70;99.90;;;;;;6214680;23;20184;-70
2022/10/02 13:28:27;;;;;;;3.67;1.75;;;17.50;99.90;;;;;;6213825;23;20215;-69
2022/10/02 13:31:03;;;;;;;2.85;1.50;;;17.70;99.90;;;;;;6214127;23;20256;-71
2022/10/02 13:33:51;;;;;;;4.45;1.60;;;17.90;99.90;;;;;;6214217;23;20180;-68
2022/10/02 13:36:35;;;;;;;2.75;1.13;;;18.00;99.90;;;;;;6214190;23;20517;-66
2022/10/02 13:39:15;;;;;;;2.80;1.60;;;17.90;99.90;;;;;;6214057;23;20181;-70
2022/10/02 13:41:57;;;;;;;2.97;1.45;;;17.80;99.90;;;;;;6213659;23;20495;-68
2022/10/02 13:44:34;;;;;;;5.05;1.63;;;18.00;99.90;;;;;;6214191;23;20176;-69
2022/10/02 13:47:37;;;;;;;4.97;1.73;;;18.10;99.90;;;;;;6214526;23;20176;-70
2022/10/02 13:50:37;;;;;;;5.63;2.10;;;18.20;99.90;;;;;;6214315;23;20180;-70
2022/10/02 13:53:30;;;;;;;3.00;1.42;;;18.30;99.90;;;;;;6209407;23;20278;-70
2022/10/02 13:56:06;;;;;;;4.25;1.45;;;17.90;99.90;;;;;;6212845;23;20187;-70
2022/10/02 13:58:48;;;;;;;5.72;1.60;;;18.00;99.90;;;;;;6213755;23;20212;-72
2022/10/02 14:01:31;;;;;;;2.88;1.88;;;18.00;99.90;;;;;;6213514;23;20251;-71
2022/10/02 14:04:14;;;;;;;4.45;1.65;;;17.80;99.90;;;;;;6213523;23;20184;-71
2022/10/02 14:06:47;;;;;;;2.53;1.53;;;17.90;99.90;;;;;;6213944;23;20187;-73
2022/10/02 14:09:44;;;;;;;4.32;1.48;;;17.90;99.90;;;;;;6213373;23;20664;-72
2022/10/02 14:12:26;;;;;;;2.60;1.65;;;17.90;99.90;;;;;;6213326;23;20203;-72
2022/10/02 14:15:26;;;;;;;3.33;1.60;;;17.90;99.90;;;;;;6212569;23;20177;-70
2022/10/02 14:18:15;;;;;;;4.95;1.65;;;17.70;99.90;;;;;;6214016;23;20211;-71
2022/10/02 14:20:49;;;;;;;4.85;1.60;;;17.60;99.90;;;;;;6207962;23;20181;-70
2022/10/02 14:23:39;;;;;;;4.38;1.90;;;17.50;99.90;;;;;;6214716;23;20196;-72
2022/10/02 14:26:16;;;;;;;4.55;1.73;;;17.50;99.90;;;;;;6168344;23;1093939;-71
2022/10/02 14:29:04;;;;;;;3.60;1.70;;;17.60;99.90;;;;;;6215434;23;20229;-72
2022/10/02 14:31:52;;;;;;;4.90;1.95;;;17.70;99.90;;;;;;6210755;23;20669;-71
2022/10/02 14:34:50;;;;;;;2.15;1.67;;;17.70;99.90;;;;;;6216995;23;20185;-70
2022/10/02 14:37:55;;;;;;;3.50;2.00;;;17.90;99.90;;;;;;6202722;23;20176;-73
2022/10/02 14:40:24;;;;;;;4.95;2.00;;;18.30;99.90;;;;;;6216978;23;20230;-71
2022/10/02 14:43:32;;;;;;;2.92;1.95;;;18.30;99.90;;;;;;6216427;23;20201;-73
2022/10/02 14:46:07;;;;;;;3.53;2.20;;;18.40;99.90;;;;;;6216866;23;20517;-71
2022/10/02 14:48:56;;;;;;;7.75;2.08;;;18.60;99.90;;;;;;6216484;23;20203;-73
2022/10/02 14:51:35;;;;;;;4.68;2.22;;;18.50;99.90;;;;;;6216673;23;20196;-70
2022/10/02 14:54:22;;;;;;;5.18;2.45;;;18.60;99.90;;;;;;6216499;23;20179;-71
2022/10/02 14:57:07;;;;;;;4.40;2.00;;;18.70;99.90;;;;;;6216736;23;20180;-71
2022/10/02 15:00:04;;;;;;;6.93;2.40;;;18.50;99.90;;;;;;6216627;23;20181;-73
2022/10/02 15:02:52;;;;;;;6.22;2.67;;;18.30;99.90;;;;;;6204378;23;20196;-73
2022/10/02 15:05:41;;;;;;;6.20;2.65;;;18.00;99.90;;;;;;6216484;23;20176;-72
2022/10/02 15:08:14;;;;;;;7.10;2.50;;;17.80;99.90;;;;;;6216659;23;20214;-73
2022/10/02 15:10:41;;;;;;;4.03;2.53;;;17.90;99.90;;;;;;6216705;23;20176;-70
2022/10/02 15:13:23;;;;;;;5.80;2.17;;;17.80;99.90;;;;;;6216679;23;20246;-72
2022/10/02 15:18:41;;;;;;;5.80;2.10;;;17.70;99.90;;;;;;6214792;23;20180;-71
2022/10/02 15:21:23;;;;;;;6.55;2.17;;;17.80;99.90;;;;;;6216212;23;20238;-68
2022/10/02 15:23:51;;;;;;;4.78;2.08;;;17.60;99.90;;;;;;6216727;23;20180;-70
2022/10/02 15:26:43;;;;;;;6.13;2.42;;;17.60;99.90;;;;;;6215943;23;20184;-70
2022/10/02 15:29:25;;;;;;;5.57;2.60;;;17.70;99.90;;;;;;6216279;23;20212;-71
2022/10/02 15:32:35;;;;;;;4.82;2.25;;;17.90;99.90;;;;;;6214823;23;20196;-70
2022/10/02 15:35:22;;;;;;;4.13;2.28;;;17.80;99.90;;;;;;6215798;23;20235;-69
2022/10/02 15:38:08;;;;;;;6.53;1.92;;;17.80;99.90;;;;;;6215973;23;20501;-70
2022/10/02 15:40:39;;;;;;;5.07;2.22;;;18.00;99.90;;;;;;6216050;23;20258;-70
2022/10/02 15:43:38;;;;;;;7.05;2.40;;;18.10;99.90;;;;;;6214862;23;20202;-69
2022/10/02 15:46:15;;;;;;;5.60;2.42;;;18.40;99.90;;;;;;6215340;23;20183;-69
2022/10/02 15:48:52;;;;;;;3.78;2.15;;;18.60;99.90;;;;;;6215157;23;20204;-70
2022/10/02 15:51:31;;;;;;;3.05;1.58;;;18.40;99.90;;;;;;6215896;23;20496;-71
2022/10/02 15:54:08;;;;;;;4.50;1.52;;;18.20;99.90;;;;;;6215491;23;20569;-68
2022/10/02 15:57:06;;;;;;;3.58;1.95;;;18.10;99.90;;;;;;6214975;23;20486;-69
2022/10/02 15:59:54;;;;;;;3.83;1.55;;;18.10;99.90;;;;;;6215616;23;20238;-69
2022/10/02 16:02:41;;;;;;;4.32;1.75;;;18.10;99.90;;;;;;6208659;23;20502;-70
2022/10/02 16:05:28;;;;;;;3.67;1.60;;;17.80;99.90;;;;;;6215482;23;20176;-70
2022/10/02 16:08:06;;;;;;;4.93;1.83;;;17.80;99.90;;;;;;6215935;23;20200;-69
2022/10/02 16:10:39;;;;;;;2.97;1.60;;;17.60;99.90;;;;;;6215270;23;20199;-69
2022/10/02 16:13:22;;;;;;;3.35;1.65;;;17.50;99.90;;;;;;6214753;23;20201;-69
2022/10/02 16:15:52;;;;;;;7.40;2.42;;;17.50;99.90;;;;;;6215655;23;20198;-69
2022/10/02 16:18:39;;;;;;;6.90;2.10;;;17.40;99.90;;;;;;6215426;23;20187;-69
2022/10/02 16:21:23;;;;;;;2.40;1.50;;;17.10;99.90;;;;;;6216090;23;20188;-70
2022/10/02 16:24:19;;;;;;;3.63;1.30;;;16.90;99.90;;;;;;6215950;23;20180;-68
2022/10/02 16:27:29;;;;;;;2.50;1.30;;;16.80;99.90;;;;;;6215454;23;20577;-67
2022/10/02 16:30:12;;;;;;;9.27;3.13;;;16.80;99.90;;;;;;6197938;23;20207;-71
2022/10/02 16:32:51;;;;;;;9.60;2.77;;;16.70;99.90;;;;;;6215355;23;20466;-69
2022/10/02 16:35:54;;;;;;;7.20;2.70;;;16.70;99.90;;;;;;6215298;23;20629;-69
2022/10/02 16:38:28;;;;;;;4.33;1.90;;;16.60;99.90;;;;;;6214941;23;20632;-68
2022/10/02 16:40:57;;;;;;;4.27;1.57;;;16.60;99.90;;;;;;6214433;23;20186;-69
2022/10/02 16:43:44;;;;;;;4.50;1.80;;;16.50;99.90;;;;;;6215251;23;20197;-70
2022/10/02 16:46:15;;;;;;;10.60;1.60;;;16.60;99.90;;;;;;6214861;23;20643;-69
2022/10/02 16:48:51;;;;;;;4.43;1.40;;;16.50;99.90;;;;;;6215039;23;20207;-70
2022/10/02 16:51:43;;;;;;;6.13;1.30;;;16.50;99.90;;;;;;6215294;23;20176;-68
2022/10/02 16:54:17;;;;;;;4.33;1.70;;;16.40;99.90;;;;;;6215081;23;20184;-68
2022/10/02 16:56:50;;;;;;;4.33;1.77;;;16.20;99.90;;;;;;6215562;23;20260;-69
2022/10/02 16:59:21;;;;;;;4.30;1.80;;;16.10;99.90;;;;;;6215502;23;20176;-69
2022/10/02 17:01:52;;;;;;;5.33;1.50;;;16.00;99.90;;;;;;6214455;23;20673;-68
2022/10/02 17:04:31;;;;;;;5.40;1.43;;;15.90;99.90;;;;;;6214938;23;20254;-68
2022/10/02 17:07:06;;;;;;;3.27;1.10;;;15.80;99.90;;;;;;6215114;23;20179;-69
2022/10/02 17:09:42;;;;;;;8.47;1.27;;;15.80;99.90;;;;;;6215553;23;20215;-69
2022/10/02 17:12:19;;;;;;;6.17;1.30;;;15.70;99.90;;;;;;6215404;23;20210;-69
2022/10/02 17:14:54;;;;;;;4.53;1.27;;;15.60;99.90;;;;;;6215093;23;20179;-68
2022/10/02 17:17:30;;;;;;;4.10;1.00;;;15.50;99.90;;;;;;6214844;23;20211;-68
2022/10/02 17:20:14;;;;;;;7.47;1.23;;;15.50;99.90;;;;;;6214932;23;20654;-68
2022/10/02 17:22:50;;;;;;;2.10;0.80;;;15.30;99.90;;;;;;6214945;23;20284;-69
2022/10/02 17:25:25;;;;;;;4.00;1.00;;;15.30;99.90;;;;;;6215040;23;20183;-68
2022/10/02 17:27:56;;;;;;;2.33;1.00;;;15.20;99.90;;;;;;6214535;23;20648;-69
2022/10/02 17:30:26;;;;;;;4.40;1.27;;;15.10;99.90;;;;;;6215325;23;20180;-68
2022/10/02 17:33:06;;;;;;;2.53;0.93;;;15.00;99.90;;;;;;6215226;23;20196;-71
2022/10/02 17:35:50;;;;;;;4.10;1.10;;;14.90;99.90;;;;;;6214794;23;20182;-68
2022/10/02 17:38:44;;;;;;;2.63;0.90;;;14.80;99.90;;;;;;6215206;23;20196;-69
2022/10/02 17:41:37;;;;;;;6.47;1.40;;;14.70;99.90;;;;;;6214744;23;20188;-69
2022/10/02 17:44:15;;;;;;;3.70;1.03;;;14.70;99.90;;;;;;6214901;23;20181;-69
2022/10/02 17:47:02;;;;;;;4.40;1.40;;;14.50;99.90;;;;;;6215360;23;20199;-69
2022/10/02 17:49:41;;;;;;;5.20;1.27;;;14.50;99.90;;;;;;6214503;23;20529;-69
2022/10/02 17:58:26;;;;;;;6.87;1.30;;;14.20;99.90;;;;;;6104736;23;20174;-69
2022/10/02 18:01:04;;;;;;;3.43;1.90;;;14.00;99.90;;;;;;6216714;23;20182;-70
2022/10/02 18:03:53;;;;;;;5.13;1.80;;;13.90;99.90;;;;;;6216744;23;20179;-70
2022/10/02 18:06:29;;;;;;;6.77;1.93;;;13.80;99.90;;;;;;6217388;23;20264;-69
2022/10/02 18:09:14;;;;;;;6.27;2.33;;;13.80;99.90;;;;;;6217066;23;20200;-69
2022/10/02 18:11:58;;;;;;;4.20;1.87;;;13.70;99.90;;;;;;6216946;23;20207;-72
2022/10/02 18:14:51;;;;;;;4.93;1.90;;;13.60;99.90;;;;;;6214145;23;20177;-71
2022/10/02 18:17:31;;;;;;;4.40;1.77;;;13.60;99.90;;;;;;6217052;23;20176;-71
2022/10/02 18:20:08;;;;;;;7.03;2.03;;;13.50;99.90;;;;;;6216442;23;20250;-71
2022/10/02 18:23:01;;;;;;;5.00;1.80;;;13.40;99.90;;;;;;6215845;23;20196;-72
2022/10/02 18:25:47;;;;;;;4.97;1.87;;;13.30;99.90;;;;;;6210399;23;20185;-71
2022/10/02 18:28:44;;;;;;;4.47;2.00;;;13.20;99.90;;;;;;6213884;23;20177;-69
2022/10/02 18:31:25;;;;;;;3.37;1.90;;;13.10;99.90;;;;;;6215663;23;20185;-69
2022/10/02 18:34:15;;;;;;;8.33;2.63;;;13.10;99.90;;;;;;6215782;23;20184;-69
2022/10/02 18:36:56;;;;;;;8.03;2.30;;;13.00;99.90;;;;;;6215751;23;20307;-68
2022/10/02 18:39:37;;;;;;;5.40;2.10;;;13.00;99.90;;;;;;6215439;23;20177;-68
2022/10/02 18:42:27;;;;;;;5.43;2.23;;;12.90;99.90;;;;;;6215969;23;20196;-68
2022/10/02 18:45:05;;;;;;;6.20;2.20;;;12.80;99.90;;;;;;6215948;23;20231;-69
2022/10/02 18:47:41;;;;;;;6.53;2.40;;;12.70;99.90;;;;;;6215878;23;20187;-69
2022/10/02 18:50:34;;;;;;;8.70;2.37;;;12.70;99.90;;;;;;6215592;23;20211;-69
2022/10/02 18:53:38;;;;;;;6.40;2.37;;;12.70;99.90;;;;;;6215826;23;20211;-69
2022/10/02 18:56:06;;;;;;;4.70;1.97;;;12.50;99.90;;;;;;6215329;23;20176;-69
2022/10/02 18:58:51;;;;;;;5.30;2.00;;;12.50;99.90;;;;;;6215834;23;20180;-69
2022/10/02 19:01:57;;;;;;;3.97;2.17;;;12.50;99.90;;;;;;6215672;23;20271;-69
2022/10/02 19:04:50;;;;;;;3.13;1.73;;;12.40;99.90;;;;;;6205606;23;20177;-69
2022/10/02 19:07:20;;;;;;;4.70;2.10;;;12.40;99.90;;;;;;6215984;23;20176;-69
2022/10/02 19:09:51;;;;;;;5.27;2.00;;;12.30;99.90;;;;;;6216048;23;20208;-69
2022/10/02 19:12:24;;;;;;;4.63;2.17;;;12.30;99.90;;;;;;6216039;23;20201;-69
2022/10/02 19:14:53;;;;;;;5.73;2.20;;;12.20;99.90;;;;;;6215394;23;20636;-69
2022/10/02 19:17:24;;;;;;;5.23;2.20;;;12.10;99.90;;;;;;6215982;23;20203;-69
2022/10/02 19:19:55;;;;;;;5.03;2.37;;;12.00;99.90;;;;;;6216063;23;20180;-69
2022/10/02 19:22:25;;;;;;;5.53;2.07;;;11.90;99.90;;;;;;6215288;23;20619;-69
2022/10/02 19:24:55;;;;;;;4.30;2.07;;;11.90;99.90;;;;;;6215615;23;20192;-69
2022/10/02 19:27:28;;;;;;;5.23;2.00;;;12.00;99.90;;;;;;6215426;23;20184;-69
2022/10/02 19:29:57;;;;;;;3.90;1.90;;;12.00;99.90;;;;;;6215546;23;20291;-69
2022/10/02 19:32:28;;;;;;;5.90;1.90;;;11.90;99.90;;;;;;6215523;23;20203;-70
2022/10/02 19:35:01;;;;;;;4.47;1.63;;;11.80;99.90;;;;;;6215395;23;20177;-69
2022/10/02 19:37:30;;;;;;;5.43;2.07;;;11.80;99.90;;;;;;6215384;23;20180;-70
2022/10/02 19:40:01;;;;;;;6.67;2.00;;;11.80;99.90;;;;;;6215652;23;20204;-69
2022/10/02 19:42:33;;;;;;;6.40;2.00;;;11.70;99.90;;;;;;6215623;23;20204;-70
2022/10/02 19:45:02;;;;;;;8.27;2.90;;;11.70;99.90;;;;;;6214789;23;20644;-69
2022/10/02 19:47:32;;;;;;;4.00;2.27;;;11.60;99.90;;;;;;6215783;23;20176;-69
2022/10/02 19:50:02;;;;;;;5.90;2.07;;;11.60;99.90;;;;;;6215494;23;20204;-69
2022/10/02 19:52:35;;;;;;;5.57;2.20;;;11.60;99.90;;;;;;6215651;23;20200;-69
2022/10/02 19:55:05;;;;;;;3.93;2.30;;;11.50;99.90;;;;;;6215267;23;20529;-69
2022/10/02 19:57:39;;;;;;;7.13;2.40;;;11.50;99.90;;;;;;6215450;23;20180;-69
2022/10/02 20:00:14;;;;;;;5.40;2.80;;;11.50;99.90;;;;;;6215493;23;20242;-69
2022/10/02 20:02:44;;;;;;;7.63;3.33;;;11.40;99.90;;;;;;6215715;23;20298;-69
2022/10/02 20:05:20;;;;;;;4.93;2.80;;;11.40;99.90;;;;;;6215185;23;20177;-69
2022/10/02 20:07:49;;;;;;;5.93;2.80;;;11.30;99.90;;;;;;6215583;23;20176;-69
2022/10/02 20:10:21;;;;;;;8.07;2.97;;;11.30;99.90;;;;;;6214676;23;20660;-69
2022/10/02 20:12:54;;;;;;;7.47;2.83;;;11.30;99.90;;;;;;6215012;23;20613;-68
2022/10/02 20:18:13;;;;;;;11.77;4.07;;;11.30;99.90;;;;;;6215213;23;20178;-69
2022/10/02 20:20:44;;;;;;;10.37;4.20;;;11.30;99.90;;;;;;6214986;23;20176;-69
2022/10/02 20:23:15;;;;;;;10.30;4.40;;;11.20;99.90;;;;;;6215080;23;20196;-69
2022/10/02 20:25:46;;;;;;;10.73;3.93;;;11.10;99.90;;;;;;6215009;23;20682;-69
2022/10/02 20:28:20;;;;;;;8.23;3.70;;;11.10;99.90;;;;;;6214964;23;20259;-69
2022/10/02 20:30:50;;;;;;;8.63;3.50;;;11.10;99.90;;;;;;6215057;23;20239;-69
2022/10/02 20:33:23;;;;;;;13.17;4.67;;;11.00;99.90;;;;;;6215173;23;20204;-69
2022/10/02 20:35:55;;;;;;;13.33;3.80;;;11.00;99.90;;;;;;6215539;23;20181;-69
2022/10/02 20:38:29;;;;;;;9.03;4.10;;;11.00;99.90;;;;;;6214545;23;20188;-69
2022/10/02 20:40:59;;;;;;;10.57;4.70;;;11.00;99.90;;;;;;6215304;23;20180;-69
2022/10/02 20:43:31;;;;;;;9.27;4.47;;;11.00;99.90;;;;;;6214627;23;20691;-69
2022/10/02 20:46:17;;;;;;;9.70;4.70;;;10.90;99.90;;;;;;6214443;23;20226;-69
2022/10/02 20:48:55;;;;;;;9.47;4.03;;;10.90;99.90;;;;;;6214099;23;20176;-70
2022/10/02 20:51:40;;;;;;;7.20;4.10;;;10.90;99.90;;;;;;6215226;23;20648;-70
2022/10/02 20:54:53;;;;;;;10.93;4.67;;;10.90;99.90;;;;;;6216152;23;20533;-69
2022/10/02 20:57:44;;;;;;;9.47;4.17;;;10.80;99.90;;;;;;6066030;23;20180;-70
2022/10/02 21:00:16;;;;;;;7.23;4.53;;;10.80;99.90;;;;;;6054603;23;20184;-70
2022/10/02 21:03:22;;;;;;;9.50;4.13;;;10.80;99.90;;;;;;6161960;23;20209;-70
2022/10/02 21:06:28;;;;;;;7.03;3.80;;;10.70;99.90;;;;;;6215891;23;20183;-70
2022/10/02 21:09:27;;;;;;;6.53;3.63;;;10.60;99.90;;;;;;6203082;23;20183;-69
2022/10/02 21:12:09;;;;;;;8.07;3.60;;;10.60;99.90;;;;;;6213940;23;20200;-69
2022/10/02 21:14:55;;;;;;;8.93;4.30;;;10.60;99.90;;;;;;6215160;23;20558;-69
2022/10/02 21:17:55;;;;;;;9.60;4.27;;;10.50;99.90;;;;;;6215657;23;20176;-69
2022/10/02 21:20:51;;;;;;;8.70;4.37;;;10.50;99.90;;;;;;6215792;23;20180;-69
2022/10/02 21:24:02;;;;;;;9.93;4.53;;;10.50;99.90;;;;;;6214739;23;20204;-69
2022/10/02 21:27:01;;;;;;;9.23;3.87;;;10.50;99.90;;;;;;6215097;23;20188;-68
2022/10/02 21:29:38;;;;;;;7.37;3.80;;;10.40;99.90;;;;;;6138930;23;20204;-69
